Wetterverlauf

Letzte Wetterlage 23.07.2014 21:26
Wetterdiagramm
Tabellarische Darstellung
Datum Temperatur Windchill Feuchte Luftdruck Windrichtung Windstärke Niederschlag
23.07.2014 21:36 23,1 °C 23,1 °C 51 % 1015,3 hPa 0 1.7 0,00 mm
23.07.2014 21:26 23,2 °C 23,2 °C 51 % 1015,2 hPa 315 0.7 0,00 mm
23.07.2014 21:16 23,7 °C 23,7 °C 49 % 1015,0 hPa 315 0.7 0,00 mm
23.07.2014 21:06 24,2 °C 24,2 °C 47 % 1015,0 hPa 45 1.4 0,00 mm
23.07.2014 20:56 24,3 °C 24,3 °C 47 % 1014,9 hPa 90 0.7 0,00 mm
23.07.2014 20:51 24,4 °C 24,4 °C 46 % 1015,0 hPa 315 0.7 0,00 mm
23.07.2014 20:41 24,7 °C 24,7 °C 46 % 1015,0 hPa 338 1.4 0,00 mm
23.07.2014 20:31 24,9 °C 24,9 °C 46 % 1014,9 hPa 45 1.4 0,00 mm
23.07.2014 20:21 25,1 °C 25,1 °C 43 % 1014,8 hPa 45 1.7 0,00 mm
23.07.2014 20:11 25,4 °C 25,4 °C 43 % 1014,7 hPa 0 1.7 0,00 mm
23.07.2014 20:01 26,1 °C 26,1 °C 42 % 1014,7 hPa 45 1.7 0,00 mm
23.07.2014 19:47 27,5 °C 27,5 °C 39 % 1014,6 hPa 315 2.0 0,00 mm
23.07.2014 19:32 27,8 °C 27,8 °C 39 % 1014,7 hPa 135 1.4 0,00 mm
23.07.2014 19:21 27,9 °C 27,9 °C 39 % 1014,5 hPa 225 0.7 0,00 mm
23.07.2014 19:11 28,1 °C 28,1 °C 38 % 1014,6 hPa 0 1.4 0,00 mm
23.07.2014 18:52 28,6 °C 28,6 °C 38 % 1014,4 hPa 270 2.0 0,00 mm
23.07.2014 18:37 28,7 °C 28,4 °C 38 % 1014,5 hPa 23 2.4 0,00 mm
23.07.2014 18:24 28,7 °C 28,7 °C 38 % 1014,6 hPa 0 1.7 0,00 mm
23.07.2014 18:12 28,8 °C 28,8 °C 38 % 1014,6 hPa 180 1.7 0,00 mm
23.07.2014 18:02 28,5 °C 28,5 °C 38 % 1014,6 hPa 293 1.4 0,00 mm
23.07.2014 17:31 29,1 °C 28,8 °C 37 % 1015,0 hPa 315 2.4 0,00 mm
23.07.2014 17:17 29,0 °C 29,0 °C 37 % 1015,1 hPa 45 2.0 0,00 mm
23.07.2014 17:02 29,0 °C 29,0 °C 37 % 1015,3 hPa 0 1.4 0,00 mm
23.07.2014 16:46 29,0 °C 29,0 °C 38 % 1015,5 hPa 315 2.0 0,00 mm
23.07.2014 16:36 29,2 °C 28,7 °C 37 % 1015,6 hPa 90 3.1 0,00 mm
Empfehlen Sie wetter.com
| Mehr
Neue Wetterwarnung

Neue Niederschlagsmeldung
Neue Meldung
Regen Liveticker
    sehr starker Regen/Gewitter
    starker Regen/Gewitter
    mäßiger bis starker Regen
    mäßiger Regen
    leichter bis mäßiger Regen
    kein Regen